Time;durP1;ratioP1;P1;durP2;ratioP2;P2;SDS_P1;SDS_P2;PMS_P1;PMS_P2;Temp;Humidity;BMP_temperature;BMP_pressure;BME280_temperature;BME280_humidity;BME280_pressure;Samples;Min_cycle;Max_cycle;Signal;HPM_P1;HPM_P2
2023/05/22 00:01:15;;;;;;;12.80;9.60;;;;;;;19.27;100.00;95810.28;4986967;28;20033;-92
2023/05/22 00:03:40;;;;;;;12.57;9.10;;;;;;;19.15;100.00;95814.75;5002387;28;20030;-92
2023/05/22 00:06:09;;;;;;;14.30;9.70;;;;;;;18.96;100.00;95803.28;4986393;28;20037;-92
2023/05/22 00:08:34;;;;;;;13.30;9.93;;;;;;;18.87;100.00;95806.47;5002317;28;20472;-92
2023/05/22 00:11:00;;;;;;;13.15;9.48;;;;;;;18.79;100.00;95804.91;5001851;28;20045;-92
2023/05/22 00:13:26;;;;;;;13.63;9.68;;;;;;;18.78;100.00;95801.44;4986574;28;20084;-92
2023/05/22 00:15:52;;;;;;;14.23;10.02;;;;;;;18.73;100.00;95803.13;4987520;28;20026;-92
2023/05/22 00:18:18;;;;;;;12.52;10.48;;;;;;;18.80;100.00;95801.19;4986986;28;20129;-92
2023/05/22 00:20:45;;;;;;;16.08;9.93;;;;;;;18.68;100.00;95805.59;5002069;28;20065;-92
2023/05/22 00:23:11;;;;;;;13.15;9.95;;;;;;;18.55;100.00;95806.56;4985681;28;20026;-92
2023/05/22 00:25:37;;;;;;;13.57;10.20;;;;;;;18.45;100.00;95803.59;5002362;28;20425;-92
2023/05/22 00:28:03;;;;;;;12.48;10.45;;;;;;;18.61;100.00;95800.34;4986228;28;20037;-92
2023/05/22 00:30:29;;;;;;;12.10;9.63;;;;;;;18.70;100.00;95793.69;5001375;28;20554;-92
2023/05/22 00:32:55;;;;;;;13.88;10.05;;;;;;;18.64;100.00;95799.09;5001112;28;20049;-92
2023/05/22 00:35:21;;;;;;;13.45;10.48;;;;;;;18.53;100.00;95796.13;5001023;28;20026;-92
2023/05/22 00:37:47;;;;;;;14.95;10.50;;;;;;;18.28;100.00;95801.47;5001533;28;20295;-92
2023/05/22 00:40:14;;;;;;;13.93;10.77;;;;;;;18.33;100.00;95800.81;5000953;28;20475;-91
2023/05/22 00:42:43;;;;;;;14.32;11.20;;;;;;;18.13;100.00;95796.47;5000824;28;20026;-91
2023/05/22 00:45:10;;;;;;;18.90;11.10;;;;;;;18.07;100.00;95796.50;5001356;28;20030;-91
2023/05/22 00:47:36;;;;;;;12.97;9.67;;;;;;;18.16;100.00;95797.88;5001518;28;20030;-92
2023/05/22 00:50:04;;;;;;;12.35;11.00;;;;;;;18.07;100.00;95794.66;5001581;28;20036;-92
2023/05/22 00:52:30;;;;;;;15.32;11.38;;;;;;;17.88;100.00;95806.28;4985633;28;20057;-91
2023/05/22 00:54:57;;;;;;;15.13;11.70;;;;;;;17.63;100.00;95796.38;5002374;28;20026;-91
2023/05/22 00:57:23;;;;;;;14.17;11.40;;;;;;;17.87;100.00;95804.63;4984553;28;20033;-92
2023/05/22 00:59:49;;;;;;;13.48;10.45;;;;;;;17.87;100.00;95799.31;5000703;28;20040;-91
2023/05/22 01:02:16;;;;;;;12.80;10.73;;;;;;;17.94;100.00;95802.78;5000386;28;20026;-91
2023/05/22 01:04:49;;;;;;;15.43;11.27;;;;;;;17.78;100.00;95806.75;5000973;28;20034;-91
2023/05/22 01:07:16;;;;;;;16.13;11.35;;;;;;;17.53;100.00;95804.00;4984498;28;20029;-92
2023/05/22 01:09:43;;;;;;;13.40;11.00;;;;;;;17.21;100.00;95803.16;5000746;28;20545;-92
2023/05/22 01:12:33;;;;;;;18.37;11.60;;;;;;;17.32;100.00;95799.81;4984344;28;20049;-92
2023/05/22 01:15:09;;;;;;;14.13;11.57;;;;;;;17.19;100.00;95800.69;4984635;28;20056;-91
2023/05/22 01:17:51;;;;;;;14.50;11.03;;;;;;;17.26;100.00;95799.84;4983989;28;20025;-92
2023/05/22 01:20:28;;;;;;;15.30;12.20;;;;;;;17.52;100.00;95796.25;4984898;28;20029;-91
2023/05/22 01:23:09;;;;;;;15.57;11.90;;;;;;;17.40;100.00;95799.59;4987409;28;20022;-92
2023/05/22 01:25:34;;;;;;;15.20;12.50;;;;;;;17.19;100.00;95800.69;4999851;28;20022;-92
2023/05/22 01:28:34;;;;;;;14.73;11.57;;;;;;;17.18;100.00;95807.03;4993455;28;20038;-92
2023/05/22 01:31:01;;;;;;;13.60;11.50;;;;;;;17.11;100.00;95811.56;4994862;28;20026;-92
2023/05/22 01:33:32;;;;;;;18.57;13.13;;;;;;;17.10;100.00;95814.41;5002353;28;20034;-91
2023/05/22 01:36:00;;;;;;;15.00;12.63;;;;;;;17.08;100.00;95813.84;5002307;28;20029;-91
2023/05/22 01:38:26;;;;;;;16.40;13.07;;;;;;;17.05;100.00;95819.56;5002904;28;20061;-91
2023/05/22 01:40:52;;;;;;;14.63;11.77;;;;;;;17.07;100.00;95821.00;5002009;28;20022;-91
2023/05/22 01:43:19;;;;;;;15.03;12.97;;;;;;;17.22;100.00;95818.06;5001947;28;20028;-92
2023/05/22 01:45:44;;;;;;;15.00;12.40;;;;;;;17.23;100.00;95819.69;5002401;28;20030;-92
2023/05/22 01:48:11;;;;;;;15.03;12.07;;;;;;;17.18;100.00;95825.66;5002420;28;20021;-92
2023/05/22 01:50:39;;;;;;;16.60;13.63;;;;;;;17.15;100.00;95833.22;5017768;28;20079;-91
2023/05/22 01:53:47;;;;;;;14.67;12.23;;;;;;;16.90;100.00;95825.94;5001602;28;20029;-92
2023/05/22 01:56:29;;;;;;;15.47;13.43;;;;;;;16.82;100.00;95838.63;5002057;28;20036;-91
2023/05/22 01:59:09;;;;;;;13.83;12.37;;;;;;;16.75;100.00;95837.81;5003191;28;20032;-91
2023/05/22 02:01:37;;;;;;;16.30;14.10;;;;;;;16.69;100.00;95834.94;5003023;28;20028;-92
2023/05/22 02:04:04;;;;;;;16.47;13.27;;;;;;;16.63;100.00;95834.94;5002706;28;20021;-91
2023/05/22 02:06:32;;;;;;;14.00;12.07;;;;;;;16.70;100.00;95836.59;5002177;28;20108;-91
2023/05/22 02:09:00;;;;;;;16.43;12.50;;;;;;;16.80;100.00;95832.69;5013622;28;21003;-91
2023/05/22 02:11:27;;;;;;;19.17;12.77;;;;;;;16.72;100.00;95831.88;5012235;28;20109;-91
2023/05/22 02:13:55;;;;;;;15.27;12.47;;;;;;;16.73;100.00;95836.19;5001411;28;20033;-91
2023/05/22 02:16:22;;;;;;;16.90;12.07;;;;;;;16.87;100.00;95839.66;5001286;28;20026;-91
2023/05/22 02:18:48;;;;;;;17.23;12.50;;;;;;;16.88;100.00;95837.81;5000967;28;20025;-92
2023/05/22 02:21:13;;;;;;;14.87;12.00;;;;;;;16.72;100.00;95842.50;5001704;28;20477;-91
2023/05/22 02:23:39;;;;;;;15.83;12.10;;;;;;;16.78;100.00;95840.88;5001495;28;20060;-91
2023/05/22 02:26:05;;;;;;;16.37;13.20;;;;;;;16.78;100.00;95832.09;5001080;28;20524;-91
2023/05/22 02:28:32;;;;;;;14.97;12.50;;;;;;;16.66;100.00;95838.00;5001020;28;20032;-91
2023/05/22 02:30:58;;;;;;;17.30;13.00;;;;;;;16.56;100.00;95845.56;5001731;28;20033;-92
2023/05/22 02:33:24;;;;;;;16.27;12.63;;;;;;;16.44;100.00;95842.75;5000903;28;20044;-91
2023/05/22 02:35:49;;;;;;;14.73;12.97;;;;;;;16.52;100.00;95833.75;5000993;28;20386;-91
2023/05/22 02:38:15;;;;;;;15.57;12.60;;;;;;;16.39;100.00;95845.19;5001013;28;20021;-92
2023/05/22 02:40:41;;;;;;;20.07;13.43;;;;;;;16.43;100.00;95846.41;5001144;28;20064;-91
2023/05/22 02:43:06;;;;;;;17.57;12.90;;;;;;;16.32;100.00;95835.59;5017198;28;20468;-91
2023/05/22 02:45:32;;;;;;;15.90;12.63;;;;;;;16.27;100.00;95836.22;5001065;28;20025;-91
2023/05/22 02:48:44;;;;;;;14.67;11.77;;;;;;;16.45;100.00;95838.25;5000666;28;20111;-91
2023/05/22 02:51:09;;;;;;;15.77;13.07;;;;;;;16.35;100.00;95838.66;5000896;28;20071;-92
2023/05/22 02:53:38;;;;;;;15.30;12.93;;;;;;;16.29;100.00;95834.16;5000819;28;20021;-92
2023/05/22 02:56:11;;;;;;;17.87;13.87;;;;;;;16.14;100.00;95834.38;5000531;28;20033;-92
2023/05/22 02:58:37;;;;;;;17.33;13.32;;;;;;;16.24;100.00;95833.97;5000519;28;20159;-91
2023/05/22 03:01:07;;;;;;;14.43;12.47;;;;;;;16.46;100.00;95834.56;5000490;28;20025;-91
2023/05/22 03:03:33;;;;;;;18.47;13.33;;;;;;;16.45;100.00;95835.59;5016904;28;20049;-91
2023/05/22 03:06:00;;;;;;;17.73;13.40;;;;;;;16.42;100.00;95838.66;5000566;28;20139;-92
2023/05/22 03:08:27;;;;;;;17.77;13.90;;;;;;;16.33;100.00;95839.88;5001103;28;20032;-91
2023/05/22 03:10:57;;;;;;;17.77;14.83;;;;;;;16.25;100.00;95835.59;5016823;28;20033;-91
2023/05/22 03:13:23;;;;;;;16.47;13.53;;;;;;;16.41;100.00;95837.84;5016589;28;20049;-91
2023/05/22 03:15:50;;;;;;;16.63;13.60;;;;;;;16.31;100.00;95836.63;5000603;28;20395;-91
2023/05/22 03:18:16;;;;;;;17.87;13.33;;;;;;;16.36;100.00;95834.97;5000816;28;20013;-91
2023/05/22 03:20:43;;;;;;;15.93;13.30;;;;;;;16.35;100.00;95838.66;5000464;28;20047;-91
2023/05/22 03:23:11;;;;;;;19.30;13.53;;;;;;;16.23;100.00;95846.44;5016931;28;20467;-91
2023/05/22 03:25:37;;;;;;;16.40;13.30;;;;;;;16.15;100.00;95849.25;5021116;28;20021;-92
2023/05/22 03:28:03;;;;;;;17.03;13.70;;;;;;;16.29;100.00;95851.91;5017683;28;20017;-91
2023/05/22 03:30:33;;;;;;;15.83;13.13;;;;;;;16.25;100.00;95844.38;5027427;28;20096;-92
2023/05/22 03:33:11;;;;;;;16.90;14.03;;;;;;;16.24;100.00;95848.03;4999233;28;20437;-91
2023/05/22 03:35:37;;;;;;;16.47;13.90;;;;;;;16.25;100.00;95844.38;4982499;28;20073;-91
2023/05/22 03:38:03;;;;;;;18.03;13.33;;;;;;;16.22;100.00;95849.25;4982541;28;20029;-91
2023/05/22 03:40:29;;;;;;;17.30;14.07;;;;;;;16.21;100.00;95845.81;4998242;28;20037;-92
2023/05/22 03:42:55;;;;;;;17.73;14.30;;;;;;;16.10;100.00;95843.75;4997084;28;20030;-91
2023/05/22 03:45:22;;;;;;;19.60;14.03;;;;;;;16.15;100.00;95843.16;4981161;28;20021;-92
2023/05/22 03:47:48;;;;;;;17.20;13.80;;;;;;;16.18;100.00;95848.03;4997611;28;20033;-91
2023/05/22 03:50:14;;;;;;;16.50;14.43;;;;;;;16.22;100.00;95844.78;4981318;28;20025;-91
2023/05/22 03:52:40;;;;;;;18.50;14.43;;;;;;;16.19;100.00;95844.38;4981105;28;20026;-91
2023/05/22 03:55:06;;;;;;;18.53;15.00;;;;;;;16.19;100.00;95842.53;4981398;28;20106;-91
2023/05/22 03:57:32;;;;;;;20.53;15.20;;;;;;;16.33;100.00;95846.03;4997266;28;20030;-90
2023/05/22 04:00:08;;;;;;;16.77;13.80;;;;;;;16.37;100.00;95841.94;4981228;28;20034;-91
2023/05/22 04:02:43;;;;;;;17.53;14.67;;;;;;;16.41;100.00;95850.28;4998238;28;20036;-91
2023/05/22 04:05:09;;;;;;;19.77;14.23;;;;;;;16.22;100.00;95847.41;5013790;28;20028;-92
2023/05/22 04:07:35;;;;;;;19.47;14.73;;;;;;;16.54;100.00;95852.13;4981506;28;20026;-91
2023/05/22 04:10:03;;;;;;;19.50;14.13;;;;;;;16.58;100.00;95842.72;4980847;28;20114;-91
2023/05/22 04:12:29;;;;;;;18.47;13.73;;;;;;;16.52;100.00;95849.66;5014236;28;20018;-91
2023/05/22 04:14:55;;;;;;;16.13;13.20;;;;;;;16.23;100.00;95848.25;4997261;28;20026;-91
2023/05/22 04:17:21;;;;;;;15.53;13.63;;;;;;;16.27;100.00;95852.94;5002314;28;20006;-91
2023/05/22 04:19:46;;;;;;;15.63;12.87;;;;;;;16.42;100.00;95851.91;5032854;28;20009;-92
2023/05/22 04:22:12;;;;;;;15.27;13.23;;;;;;;16.34;100.00;95855.59;5012303;28;20028;-91
2023/05/22 04:24:47;;;;;;;17.97;14.47;;;;;;;16.41;100.00;95853.75;5001352;28;20036;-91
2023/05/22 04:27:14;;;;;;;16.53;14.73;;;;;;;16.36;100.00;95856.19;5000713;28;20029;-91
2023/05/22 04:29:40;;;;;;;17.23;14.50;;;;;;;16.47;100.00;95860.91;5000482;28;20018;-91
2023/05/22 04:32:09;;;;;;;16.67;14.37;;;;;;;16.44;100.00;95860.50;5016631;28;20063;-90
2023/05/22 04:34:38;;;;;;;18.03;14.60;;;;;;;16.38;100.00;95869.28;5016898;28;20079;-91
2023/05/22 04:37:05;;;;;;;17.57;13.50;;;;;;;16.20;100.00;95868.06;5017483;28;20049;-91
2023/05/22 04:39:30;;;;;;;17.67;14.43;;;;;;;16.42;100.00;95868.66;5017125;28;20029;-91
2023/05/22 04:41:57;;;;;;;17.17;14.03;;;;;;;16.59;100.00;95866.41;5016974;28;20036;-91
2023/05/22 04:44:26;;;;;;;16.43;13.50;;;;;;;16.69;100.00;95864.13;5022486;28;20487;-82
2023/05/22 04:46:51;;;;;;;17.87;14.80;;;;;;;16.53;100.00;95867.22;5010544;28;20040;-89
2023/05/22 04:49:17;;;;;;;14.83;12.60;;;;;;;16.54;100.00;95862.75;5004389;28;20025;-89
2023/05/22 04:52:03;;;;;;;17.37;13.57;;;;;;;16.59;100.00;95861.09;5003759;28;20037;-90
2023/05/22 04:54:29;;;;;;;17.63;13.73;;;;;;;16.46;100.00;95864.59;5003115;28;20176;-90
2023/05/22 04:56:54;;;;;;;18.13;14.00;;;;;;;16.49;100.00;95876.63;5018962;28;20499;-89
2023/05/22 04:59:22;;;;;;;21.17;14.70;;;;;;;16.59;100.00;95871.72;5019590;28;20032;-89
2023/05/22 05:01:51;;;;;;;18.73;15.20;;;;;;;16.65;100.00;95880.69;5001733;28;20052;-90
2023/05/22 05:04:17;;;;;;;18.57;14.47;;;;;;;16.50;100.00;95872.97;5000162;28;20040;-90
2023/05/22 05:06:44;;;;;;;18.37;14.50;;;;;;;16.83;100.00;95880.09;4983348;28;20021;-90
2023/05/22 05:09:09;;;;;;;22.27;16.10;;;;;;;16.84;100.00;95876.44;4990199;28;20101;-90
2023/05/22 05:11:36;;;;;;;19.53;15.93;;;;;;;16.96;100.00;95877.41;4995402;28;20041;-90
2023/05/22 05:14:02;;;;;;;16.87;14.77;;;;;;;17.26;100.00;95866.28;5024645;28;20025;-90
2023/05/22 05:16:28;;;;;;;17.23;14.33;;;;;;;17.33;100.00;95872.41;5011488;28;20032;-90
2023/05/22 05:18:57;;;;;;;17.73;14.43;;;;;;;17.71;100.00;95868.97;5000002;28;20026;-90
2023/05/22 05:21:26;;;;;;;18.67;14.97;;;;;;;17.63;100.00;95857.53;4999679;28;20101;-90
2023/05/22 05:23:52;;;;;;;19.37;14.60;;;;;;;17.70;100.00;95870.78;4999608;28;20034;-90
2023/05/22 05:27:01;;;;;;;18.20;14.70;;;;;;;18.19;100.00;95860.50;5004559;28;20530;-90
2023/05/22 05:29:27;;;;;;;15.30;13.70;;;;;;;18.20;100.00;95864.78;5050367;28;20037;-91
2023/05/22 05:32:01;;;;;;;20.40;14.27;;;;;;;18.58;100.00;95862.06;5025101;28;20021;-90
2023/05/22 05:34:45;;;;;;;19.63;14.43;;;;;;;19.05;100.00;95851.78;5026359;28;20009;-90
2023/05/22 05:37:34;;;;;;;17.00;13.60;;;;;;;19.10;100.00;95856.44;5022330;28;20040;-91
2023/05/22 05:40:04;;;;;;;17.23;12.87;;;;;;;19.29;100.00;95860.75;4996268;28;20026;-91
2023/05/22 05:42:30;;;;;;;19.93;14.67;;;;;;;19.52;100.00;95854.72;4982406;28;20112;-90
2023/05/22 05:44:57;;;;;;;15.68;13.27;;;;;;;19.98;100.00;95859.44;5018204;28;20018;-90
2023/05/22 05:47:25;;;;;;;15.38;13.32;;;;;;;20.24;100.00;95855.56;5017878;28;20030;-90
2023/05/22 05:49:52;;;;;;;14.15;12.25;;;;;;;21.09;100.00;95845.50;5010310;28;20053;-90
2023/05/22 05:52:18;;;;;;;15.18;13.30;;;;;;;21.25;100.00;95839.44;5001579;28;20028;-89
2023/05/22 05:54:46;;;;;;;19.73;14.48;;;;;;;21.33;100.00;95839.09;5000459;28;20032;-90
2023/05/22 05:57:14;;;;;;;18.45;13.40;;;;;;;21.89;100.00;95842.06;4999712;28;20038;-90
2023/05/22 05:59:39;;;;;;;17.33;13.52;;;;;;;21.78;100.00;95841.06;5001978;28;20037;-91
2023/05/22 06:02:17;;;;;;;13.77;12.02;;;;;;;21.61;100.00;95845.56;5019851;28;20021;-90
2023/05/22 06:04:47;;;;;;;14.23;12.25;;;;;;;21.85;100.00;95841.72;5000395;28;20021;-90
2023/05/22 06:07:14;;;;;;;17.67;12.10;;;;;;;22.12;100.00;95847.28;4989715;28;20022;-90
2023/05/22 06:09:44;;;;;;;15.65;11.88;;;;;;;22.08;100.00;95850.69;4983718;28;20149;-90
2023/05/22 06:12:14;;;;;;;14.95;11.50;;;;;;;22.20;100.00;95856.00;5002206;28;20026;-90
2023/05/22 06:14:43;;;;;;;12.85;11.18;;;;;;;23.20;100.00;95852.47;5001842;28;20429;-91
2023/05/22 06:17:08;;;;;;;16.45;11.43;;;;;;;23.06;100.00;95854.72;5001639;28;20021;-91
2023/05/22 06:19:37;;;;;;;17.65;11.27;;;;;;;23.37;100.00;95847.06;5001585;28;20025;-91
2023/05/22 06:22:03;;;;;;;16.73;11.07;;;;;;;23.87;100.00;95856.78;4998867;28;20014;-91
2023/05/22 06:24:31;;;;;;;16.73;10.50;;;;;;;24.01;100.00;95854.56;5001328;28;20067;-91
2023/05/22 06:27:00;;;;;;;13.48;10.20;;;;;;;24.04;100.00;95847.84;5017437;28;20029;-91
2023/05/22 06:29:32;;;;;;;13.93;10.23;;;;;;;23.77;100.00;95856.69;5014104;28;20025;-90
2023/05/22 06:31:58;;;;;;;15.38;11.35;;;;;;;24.22;100.00;95861.72;5006142;28;20120;-91
2023/05/22 06:34:24;;;;;;;13.02;11.25;;;;;;;23.95;100.00;95858.25;5029972;28;20009;-91
2023/05/22 06:36:50;;;;;;;16.40;11.82;;;;;;;24.32;100.00;95860.22;5004527;28;20108;-91
2023/05/22 06:39:18;;;;;;;13.88;10.70;;;;;;;24.76;100.00;95865.44;4995802;28;20053;-91
2023/05/22 06:42:10;;;;;;;12.35;11.05;;;;;;;25.03;100.00;95860.78;4986280;28;20061;-90
2023/05/22 06:44:53;;;;;;;13.65;10.68;;;;;;;25.40;100.00;95859.94;5033604;28;20154;-91
2023/05/22 06:47:21;;;;;;;16.00;10.85;;;;;;;24.92;100.00;95861.78;5005974;28;20029;-91
2023/05/22 06:49:47;;;;;;;12.63;10.90;;;;;;;25.51;100.00;95858.88;5016981;28;20192;-91
2023/05/22 06:52:14;;;;;;;14.55;11.15;;;;;;;25.97;100.00;95855.59;5032620;28;20021;-90
2023/05/22 06:54:49;;;;;;;13.77;10.82;;;;;;;26.17;100.00;95857.50;5015680;28;20011;-92
2023/05/22 06:57:14;;;;;;;13.48;10.27;;;;;;;27.12;100.00;95852.38;4984017;28;20081;-91
2023/05/22 06:59:40;;;;;;;13.48;10.57;;;;;;;26.62;100.00;95858.63;4982052;28;20111;-91
2023/05/22 07:02:06;;;;;;;12.60;9.85;;;;;;;26.98;99.67;95857.53;5015492;28;20061;-91
2023/05/22 07:04:58;;;;;;;13.85;11.18;;;;;;;26.92;100.00;95866.72;4997481;28;20064;-90
2023/05/22 07:07:36;;;;;;;12.13;10.15;;;;;;;27.20;100.00;95862.66;5016907;28;20029;-91
2023/05/22 07:10:02;;;;;;;11.57;10.00;;;;;;;27.59;95.15;95863.88;5004145;28;20036;-91
2023/05/22 07:12:28;;;;;;;11.77;9.60;;;;;;;27.96;94.68;95858.06;5020081;28;20467;-92
2023/05/22 07:14:55;;;;;;;11.00;9.70;;;;;;;28.24;92.27;95861.94;5017101;28;20024;-91
2023/05/22 07:17:23;;;;;;;12.05;9.18;;;;;;;28.41;83.82;95861.59;5016668;28;20036;-91
2023/05/22 07:19:50;;;;;;;13.10;9.75;;;;;;;29.06;84.05;95870.25;4997195;28;20018;-91
2023/05/22 07:22:15;;;;;;;12.25;10.60;;;;;;;29.08;83.61;95867.28;4990674;28;20033;-92
2023/05/22 07:24:43;;;;;;;14.73;10.25;;;;;;;28.85;83.05;95866.91;4982596;28;20037;-91
2023/05/22 07:27:13;;;;;;;14.07;10.60;;;;;;;28.93;80.38;95870.88;4986173;28;20610;-91
2023/05/22 07:29:39;;;;;;;12.50;10.65;;;;;;;28.32;87.55;95866.75;5022613;28;20030;-92
2023/05/22 07:32:07;;;;;;;14.73;10.55;;;;;;;28.52;85.57;95859.63;4999882;28;20053;-92
2023/05/22 07:34:34;;;;;;;14.32;9.45;;;;;;;28.64;77.52;95860.06;4996770;28;20022;-91
2023/05/22 07:37:11;;;;;;;10.13;8.57;;;;;;;30.26;63.14;95859.38;4997149;28;20025;-92
2023/05/22 07:39:37;;;;;;;11.27;9.57;;;;;;;30.37;63.96;95861.94;4982514;28;20022;-91
2023/05/22 07:42:04;;;;;;;10.38;9.25;;;;;;;29.88;68.38;95860.41;5000277;28;20017;-92
2023/05/22 07:44:33;;;;;;;10.50;8.63;;;;;;;29.95;71.84;95863.59;5016576;28;20021;-91
2023/05/22 07:46:59;;;;;;;15.88;9.88;;;;;;;29.00;72.96;95876.81;5012286;28;20029;-91
2023/05/22 07:49:26;;;;;;;11.27;8.40;;;;;;;30.26;66.58;95864.81;4993305;28;20021;-92
2023/05/22 07:51:52;;;;;;;11.70;9.65;;;;;;;30.28;69.03;95862.63;4994607;28;20030;-91
2023/05/22 07:54:19;;;;;;;10.57;9.48;;;;;;;30.87;67.30;95868.47;5016318;28;20030;-92
2023/05/22 07:56:49;;;;;;;11.23;10.02;;;;;;;31.10;59.92;95864.00;5000757;28;20061;-91
2023/05/22 07:59:18;;;;;;;13.65;9.65;;;;;;;30.58;68.49;95865.94;5000187;28;20542;-91
2023/05/22 08:01:44;;;;;;;10.88;9.40;;;;;;;30.89;67.60;95860.84;4991104;28;20033;-91
2023/05/22 08:04:09;;;;;;;11.15;9.27;;;;;;;30.30;68.95;95863.09;5016105;28;20025;-91
2023/05/22 08:06:35;;;;;;;11.32;10.18;;;;;;;31.06;66.29;95870.34;5000168;28;20021;-92
2023/05/22 08:09:01;;;;;;;13.98;9.48;;;;;;;31.26;64.90;95869.19;5026188;28;20029;-91
2023/05/22 08:11:27;;;;;;;11.20;9.13;;;;;;;31.54;62.12;95870.81;5016443;28;20140;-92
2023/05/22 08:13:53;;;;;;;11.23;9.57;;;;;;;30.38;70.33;95867.06;5005122;28;20037;-91
2023/05/22 08:16:19;;;;;;;11.43;10.20;;;;;;;31.13;65.82;95866.13;4994274;28;20021;-92
2023/05/22 08:18:44;;;;;;;12.25;9.85;;;;;;;31.09;65.33;95864.31;5001480;28;20506;-92
2023/05/22 08:21:10;;;;;;;10.85;9.20;;;;;;;32.01;62.67;95862.56;5020307;28;20734;-92
2023/05/22 08:23:40;;;;;;;10.68;9.57;;;;;;;31.46;61.15;95858.75;5019480;28;20029;-91
2023/05/22 08:26:07;;;;;;;10.30;9.20;;;;;;;31.75;63.79;95859.53;5004317;28;20037;-92
2023/05/22 08:28:33;;;;;;;11.40;9.00;;;;;;;32.38;56.00;95859.53;4996199;28;20112;-92
2023/05/22 08:31:07;;;;;;;10.40;8.82;;;;;;;31.84;57.56;95857.72;4984058;28;20112;-93
2023/05/22 08:33:32;;;;;;;12.23;9.70;;;;;;;30.57;70.88;95861.63;5002801;28;20057;-91
2023/05/22 08:35:58;;;;;;;11.77;9.57;;;;;;;31.58;66.05;95860.94;5003197;28;20064;-92
2023/05/22 08:38:24;;;;;;;12.35;9.32;;;;;;;32.36;60.24;95863.66;5000434;28;20368;-92
2023/05/22 08:40:54;;;;;;;12.90;8.98;;;;;;;32.04;63.08;95851.88;5003296;28;20025;-92
2023/05/22 08:43:20;;;;;;;10.45;9.35;;;;;;;31.82;63.01;95859.91;5003439;28;20458;-91
2023/05/22 08:45:59;;;;;;;13.95;10.25;;;;;;;32.57;56.82;95856.66;5019741;28;20033;-92
2023/05/22 08:48:29;;;;;;;11.70;9.50;;;;;;;31.84;64.06;95846.84;5019203;28;20029;-92
2023/05/22 08:50:57;;;;;;;12.93;9.52;;;;;;;32.73;58.47;95850.84;4983656;28;20040;-91
2023/05/22 08:53:24;;;;;;;12.02;9.55;;;;;;;31.42;64.37;95848.75;5016211;28;20748;-92
2023/05/22 08:55:53;;;;;;;16.08;10.25;;;;;;;31.08;66.97;95858.06;5018352;28;20120;-91
2023/05/22 08:58:20;;;;;;;11.90;9.82;;;;;;;31.18;65.86;95854.34;5003303;28;20025;-91
2023/05/22 09:00:47;;;;;;;11.32;10.20;;;;;;;30.68;70.01;95854.91;5002675;28;20049;-91
2023/05/22 09:03:14;;;;;;;10.38;9.38;;;;;;;31.56;63.25;95852.31;5012925;28;20056;-92
2023/05/22 09:05:40;;;;;;;10.40;9.13;;;;;;;32.04;59.05;95842.91;5008623;28;20416;-92
2023/05/22 09:08:09;;;;;;;11.25;9.27;;;;;;;32.69;57.91;95847.94;5019727;28;20559;-92
2023/05/22 09:10:36;;;;;;;10.50;9.15;;;;;;;33.03;54.11;95841.94;5007844;28;20064;-94
2023/05/22 09:13:10;;;;;;;10.02;8.77;;;;;;;33.47;52.02;95842.13;5020249;28;20116;-93
2023/05/22 09:15:36;;;;;;;11.00;9.10;;;;;;;32.88;53.05;95847.75;5003320;28;20502;-92
2023/05/22 09:18:03;;;;;;;11.25;10.07;;;;;;;32.63;53.68;95844.53;4998808;28;20034;-92
2023/05/22 09:20:34;;;;;;;12.00;8.48;;;;;;;32.72;55.72;95844.59;5013267;28;20144;-93
2023/05/22 09:23:01;;;;;;;11.85;9.95;;;;;;;32.47;54.86;95846.03;5025247;28;20021;-92
2023/05/22 09:25:27;;;;;;;11.70;8.57;;;;;;;32.55;55.77;95839.03;5043027;28;20063;-92
2023/05/22 09:27:52;;;;;;;9.82;8.38;;;;;;;32.94;54.95;95838.31;5026051;28;20014;-92
2023/05/22 09:30:19;;;;;;;10.75;8.35;;;;;;;33.61;49.46;95837.38;5039909;28;20029;-93
2023/05/22 09:32:47;;;;;;;11.77;9.85;;;;;;;32.55;49.97;95841.75;5024663;28;20029;-93
2023/05/22 09:35:13;;;;;;;11.60;9.30;;;;;;;34.05;45.03;95846.50;5024114;28;20025;-92
2023/05/22 09:37:39;;;;;;;11.93;8.40;;;;;;;34.07;44.15;95846.16;5023040;28;20063;-92
2023/05/22 09:40:07;;;;;;;10.77;8.32;;;;;;;32.94;46.46;95843.78;5009736;28;20032;-93
2023/05/22 09:42:33;;;;;;;12.55;9.38;;;;;;;33.13;50.53;95848.22;5003612;28;20025;-94
2023/05/22 09:45:06;;;;;;;10.45;8.98;;;;;;;33.52;45.83;95847.47;5002804;28;20025;-94
2023/05/22 09:47:33;;;;;;;10.93;9.80;;;;;;;31.85;56.68;95840.28;5002279;28;20029;-93
2023/05/22 09:50:03;;;;;;;9.57;8.57;;;;;;;32.53;48.40;95836.63;5002318;28;20021;-92
2023/05/22 09:52:32;;;;;;;11.25;9.30;;;;;;;32.63;49.00;95843.75;5002201;28;20052;-93
2023/05/22 09:55:00;;;;;;;10.38;7.72;;;;;;;33.65;43.87;95835.63;5002539;28;20045;-93
2023/05/22 09:57:29;;;;;;;9.40;8.07;;;;;;;34.19;41.67;95840.88;5002000;28;20029;-93
2023/05/22 09:59:57;;;;;;;10.38;7.57;;;;;;;34.65;40.84;95836.72;5002444;28;20111;-93
2023/05/22 10:02:32;;;;;;;11.05;8.02;;;;;;;33.92;48.63;95845.47;5018476;28;20025;-93
2023/05/22 10:04:59;;;;;;;10.63;9.13;;;;;;;33.57;44.54;95839.16;5001694;28;20029;-93
2023/05/22 10:07:31;;;;;;;10.77;8.50;;;;;;;34.14;49.19;95839.13;5001913;28;20025;-93
2023/05/22 10:10:03;;;;;;;9.30;7.95;;;;;;;33.70;44.92;95838.22;5001688;28;20029;-93
2023/05/22 10:12:32;;;;;;;9.23;8.20;;;;;;;34.56;41.31;95830.47;4998533;28;20037;-93
2023/05/22 10:15:00;;;;;;;9.68;7.82;;;;;;;34.87;40.32;95832.97;5018957;28;20093;-94
2023/05/22 10:17:26;;;;;;;8.93;7.90;;;;;;;35.35;41.34;95831.91;5025111;28;20017;-94
2023/05/22 10:19:54;;;;;;;8.55;7.53;;;;;;;35.49;37.54;95827.00;5041150;28;20013;-93
2023/05/22 10:22:21;;;;;;;10.35;8.40;;;;;;;33.39;42.98;95829.25;5041581;28;20026;-93
2023/05/22 10:24:47;;;;;;;11.30;8.70;;;;;;;34.00;43.71;95833.81;5021945;28;20045;-94
2023/05/22 10:27:13;;;;;;;9.18;8.02;;;;;;;34.09;43.20;95825.63;5016612;28;20013;-94
2023/05/22 10:30:02;;;;;;;9.88;8.20;;;;;;;33.40;44.62;95839.03;5026149;28;20010;-93
2023/05/22 10:32:31;;;;;;;9.75;8.10;;;;;;;32.96;46.56;95830.66;5026358;28;20020;-93
2023/05/22 10:35:30;;;;;;;9.63;7.32;;;;;;;34.21;43.94;95827.72;5025730;28;20029;-94
2023/05/22 10:38:13;;;;;;;9.00;7.63;;;;;;;34.35;44.07;95822.09;5024971;28;20032;-93
2023/05/22 10:40:40;;;;;;;9.85;8.15;;;;;;;35.44;39.20;95829.91;5024385;28;20017;-94
2023/05/22 10:43:06;;;;;;;9.07;7.72;;;;;;;34.81;41.09;95823.34;5041701;28;20077;-94
2023/05/22 10:45:32;;;;;;;8.15;7.13;;;;;;;35.21;36.89;95826.63;5025439;28;20009;-93
2023/05/22 10:48:44;;;;;;;8.48;7.28;;;;;;;35.27;38.81;95819.84;5028882;28;20033;-94
2023/05/22 10:51:12;;;;;;;11.32;7.68;;;;;;;34.90;42.08;95822.19;4998589;28;20075;-93
2023/05/22 10:53:39;;;;;;;9.95;8.55;;;;;;;34.56;40.85;95820.34;5023669;28;20017;-93
2023/05/22 10:56:11;;;;;;;10.98;7.55;;;;;;;33.83;40.53;95817.38;5013500;28;20046;-93
2023/05/22 10:58:37;;;;;;;11.27;8.27;;;;;;;33.17;41.03;95817.31;5006221;28;20045;-93
2023/05/22 11:01:17;;;;;;;10.23;8.30;;;;;;;34.43;39.87;95816.63;5002257;28;20061;-93
2023/05/22 11:03:59;;;;;;;9.25;7.97;;;;;;;34.58;38.48;95809.13;5001207;28;20022;-94
2023/05/22 11:07:04;;;;;;;9.32;8.30;;;;;;;35.11;39.50;95816.88;5001597;28;20028;-94
2023/05/22 11:09:47;;;;;;;10.85;7.82;;;;;;;34.23;40.69;95806.34;4999663;28;20041;-94
2023/05/22 11:12:22;;;;;;;9.63;7.40;;;;;;;33.77;42.31;95816.72;5000999;28;20087;-94
2023/05/22 11:14:52;;;;;;;9.95;8.38;;;;;;;34.99;38.92;95799.53;5001688;28;20044;-92
2023/05/22 11:17:28;;;;;;;10.15;8.05;;;;;;;34.54;38.82;95792.53;5001855;28;20116;-94
2023/05/22 11:20:17;;;;;;;11.18;7.78;;;;;;;34.78;37.12;95792.03;5000701;28;20029;-94
2023/05/22 11:22:59;;;;;;;8.50;7.60;;;;;;;35.19;37.84;95801.56;5000869;28;20386;-94
2023/05/22 11:25:26;;;;;;;11.18;7.72;;;;;;;34.87;37.10;95792.78;5008717;28;20083;-94
2023/05/22 11:27:53;;;;;;;10.45;7.85;;;;;;;34.57;40.16;95791.91;5018838;28;20041;-94